Tramper — PHAA — position and weather

sailwx.info

Track history (hours):
 
Tides and Currents Weather Stations Pressure Air Temp Water Temp Dewpoint Dewpoint Depression Visibility Wind Speed Wind Dir Waves Ship Positions

Tramper

Last reported at 2014-Nov-01 09:29 UTC. Time now 2014-Nov-01 09:47 UTC.
Position N 51°15' E 004°21'.

Length 101 m; beam 20 m.

Type: Ship. MMSI: 245867000.

Date/timePositionNaut miles runAvg speedWind from/ knotsBaromVisibWave heightAir tempDewpointWater temp
2014-Nov-01 09:29N 51°15' E 004°21'0 0.0
2014-Nov-01 08:32N 51°15' E 004°21'0 0.0
2014-Nov-01 07:32N 51°15' E 004°21'0 0.0
2014-Nov-01 06:32N 51°15' E 004°21'0 0.0
2014-Nov-01 05:32N 51°15' E 004°21'0 0.0
2014-Nov-01 04:32N 51°15' E 004°21'0 0.0
2014-Nov-01 03:32N 51°15' E 004°21'0 0.0
2014-Nov-01 02:32N 51°15' E 004°21'0 0.0
2014-Nov-01 01:32N 51°15' E 004°21'0 0.0
2014-Nov-01 00:32N 51°15' E 004°21'0 0.0
2014-Oct-31 23:32N 51°15' E 004°21'0 0.0
2014-Oct-31 22:32N 51°15' E 004°21'0 0.0
2014-Oct-31 21:32N 51°15' E 004°21'0 0.0
2014-Oct-31 20:32N 51°15' E 004°21'2 2.3
2014-Oct-31 19:33N 51°17' E 004°20'4 4.3
2014-Oct-31 18:33N 51°21' E 004°17'3 2.9
2014-Oct-31 17:34N 51°22' E 004°13'8 7.6
2014-Oct-31 16:34N 51°25' E 004°02'1010.1
2014-Oct-31 15:34N 51°21' E 003°47'1312.9
2014-Oct-31 14:34N 51°25' E 003°27'1515.4
2014-Oct-31 13:34N 51°24' E 003°02'1413.6
2014-Oct-31 12:33N 51°22' E 002°41'9 8.9
2014-Oct-31 11:33N 51°21' E 002°26'1111.1
2014-Oct-31 10:33N 51°15' E 002°11'1111.1
2014-Oct-31 09:33N 51°10' E 001°55'1414.5
2014-Oct-31 08:33N 51°02' E 001°37'1717.0
2014-Oct-31 07:34N 50°47' E 001°23'1616.1
2014-Oct-31 06:34N 50°35' E 001°05'1615.8
2014-Oct-31 05:34N 50°28' E 000°43'1616.1
2014-Oct-31 04:34N 50°24' E 000°19'1616.4
2014-Oct-31 03:33N 50°19' W 000°06'1717.1
2014-Oct-31 02:34N 50°15' W 000°32'1918.1
2014-Oct-31 01:31N 50°10' W 000°60'1818.8
2014-Oct-31 00:34N 50°04' W 001°27'1919.1
2014-Oct-30 23:33N 49°59' W 001°55'1818.4
2014-Oct-30 22:34N 49°54' W 002°23'2117.2
2014-Oct-30 21:21N 49°48' W 002°54'15914.7
2014-Oct-30 10:33N 47°59' W 005°51'1615.8
2014-Oct-30 09:33N 47°43' W 005°51'1615.7
2014-Oct-30 08:34N 47°28' W 005°50'1616.4
2014-Oct-30 07:34N 47°11' W 005°51'1717.4
2014-Oct-30 06:34N 46°54' W 005°52'1716.5
2014-Oct-30 05:34N 46°37' W 005°52'1716.8
2014-Oct-30 04:34N 46°21' W 005°53'1717.0
2014-Oct-30 03:34N 46°04' W 005°54'1716.8
2014-Oct-30 02:34N 45°47' W 005°56'1716.5
2014-Oct-30 01:33N 45°30' W 005°57'1616.1
2014-Oct-30 00:33N 45°14' W 005°57'1425.5
2014-Oct-30 00:00N 45°00' W 005°54'4 8.5 999 / 31016.0 2.2 0.519.118.8
2014-Oct-29 23:33N 44°58' W 005°58'2116.6
2014-Oct-29 22:18N 44°37' W 005°58'1216.0
2014-Oct-29 21:33N 44°25' W 005°58'1716.7
2014-Oct-29 20:33N 44°08' W 005°59'1816.3
2014-Oct-29 19:28N 43°50' W 005°60'1415.3
2014-Oct-29 18:32N 43°36' W 005°58'1 0.0
2014-Oct-28 05:26N 43°37' W 005°59'6 6.7
2014-Oct-28 04:33N 43°40' W 006°06'8 7.5
2014-Oct-28 03:25N 43°41' W 006°17'4011.7
2014-Oct-28 00:00N 43°48' W 007°12'119 9.9 160 / 61013.5 5.4 0.518.516.5
2014-Oct-27 12:00N 43°00' W 009°42'15212.7 130 / 61016.8 5.4 0.520.517.8
2014-Oct-27 00:00N 41°12' W 012°06'14712.2 170 / 51018.0 5.4 0.519.918.9
2014-Oct-26 12:00N 39°00' W 013°30'12314.0 130 / 51018.0 5.4 0.522.819.9
2014-Oct-26 03:13N 36°57' W 013°28'2914.4
2014-Oct-26 01:13N 36°28' W 013°30'1614.7
2014-Oct-26 00:08N 36°13' W 013°28'755.6
2014-Oct-26 00:00N 36°06' W 013°24'2111.9 999 / 21018.0 5.4 21.619.4
2014-Oct-25 22:12N 35°45' W 013°28'914.3
2014-Oct-25 21:33N 35°36' W 013°28'14014.7
2014-Oct-25 12:00N 33°18' W 014°00'1912.7 999 / 11017.0 5.4 23.821.2
2014-Oct-25 10:32N 33°03' W 014°12'1414.4
2014-Oct-25 09:33N 32°49' W 014°17'1814.4
2014-Oct-25 08:19N 32°32' W 014°24'1614.7
2014-Oct-25 07:15N 32°18' W 014°31'1014.7
2014-Oct-25 06:33N 32°08' W 014°35'9714.8
2014-Oct-25 00:00N 30°36' W 015°12'2513.2 999 / 11016.2 5.4 23.121.4
2014-Oct-24 22:06N 30°13' W 015°23'814.4
2014-Oct-24 21:33N 30°05' W 015°26'2914.4
2014-Oct-24 19:33N 29°38' W 015°36'1614.6
2014-Oct-24 18:27N 29°23' W 015°42'96 3.2
2014-Oct-23 12:00N 27°54' W 016°24'22418.7 030 / 151017.0 5.4 1.024.521.1
2014-Oct-23 00:00N 24°12' W 017°00'107 8.9 020 / 81016.0 5.4 0.524.520.8
2014-Oct-22 12:00N 22°30' W 017°36'   020 / 101015.5 5.4 0.523.520.2
Track history (hours):
 
Tides and Currents Weather Stations Pressure Air Temp Water Temp Dewpoint Dewpoint Depression Visibility Wind Speed Wind Dir Waves Ship Positions

Tramper

Last reported at 2014-Nov-01 09:29 UTC. Time now 2014-Nov-01 09:47 UTC.
Position N 51°15' E 004°21'.

Length 101 m; beam 20 m.

Type: Ship. MMSI: 245867000.

Date/timePositionNaut miles runAvg speedWind from/ knotsBaromVisibWave heightAir tempDewpointWater temp
2014-Nov-01 09:29N 51°15' E 004°21'0 0.0
2014-Nov-01 08:32N 51°15' E 004°21'0 0.0
2014-Nov-01 07:32N 51°15' E 004°21'0 0.0
2014-Nov-01 06:32N 51°15' E 004°21'0 0.0
2014-Nov-01 05:32N 51°15' E 004°21'0 0.0
2014-Nov-01 04:32N 51°15' E 004°21'0 0.0
2014-Nov-01 03:32N 51°15' E 004°21'0 0.0
2014-Nov-01 02:32N 51°15' E 004°21'0 0.0
2014-Nov-01 01:32N 51°15' E 004°21'0 0.0
2014-Nov-01 00:32N 51°15' E 004°21'0 0.0
2014-Oct-31 23:32N 51°15' E 004°21'0 0.0
2014-Oct-31 22:32N 51°15' E 004°21'0 0.0
2014-Oct-31 21:32N 51°15' E 004°21'0 0.0
2014-Oct-31 20:32N 51°15' E 004°21'2 2.3
2014-Oct-31 19:33N 51°17' E 004°20'4 4.3
2014-Oct-31 18:33N 51°21' E 004°17'3 2.9
2014-Oct-31 17:34N 51°22' E 004°13'8 7.6
2014-Oct-31 16:34N 51°25' E 004°02'1010.1
2014-Oct-31 15:34N 51°21' E 003°47'1312.9
2014-Oct-31 14:34N 51°25' E 003°27'1515.4
2014-Oct-31 13:34N 51°24' E 003°02'1413.6
2014-Oct-31 12:33N 51°22' E 002°41'9 8.9
2014-Oct-31 11:33N 51°21' E 002°26'1111.1
2014-Oct-31 10:33N 51°15' E 002°11'1111.1
2014-Oct-31 09:33N 51°10' E 001°55'1414.5
2014-Oct-31 08:33N 51°02' E 001°37'1717.0
2014-Oct-31 07:34N 50°47' E 001°23'1616.1
2014-Oct-31 06:34N 50°35' E 001°05'1615.8
2014-Oct-31 05:34N 50°28' E 000°43'1616.1
2014-Oct-31 04:34N 50°24' E 000°19'1616.4
2014-Oct-31 03:33N 50°19' W 000°06'1717.1
2014-Oct-31 02:34N 50°15' W 000°32'1918.1
2014-Oct-31 01:31N 50°10' W 000°60'1818.8
2014-Oct-31 00:34N 50°04' W 001°27'1919.1
2014-Oct-30 23:33N 49°59' W 001°55'1818.4
2014-Oct-30 22:34N 49°54' W 002°23'2117.2
2014-Oct-30 21:21N 49°48' W 002°54'15914.7
2014-Oct-30 10:33N 47°59' W 005°51'1615.8
2014-Oct-30 09:33N 47°43' W 005°51'1615.7
2014-Oct-30 08:34N 47°28' W 005°50'1616.4
2014-Oct-30 07:34N 47°11' W 005°51'1717.4
2014-Oct-30 06:34N 46°54' W 005°52'1716.5
2014-Oct-30 05:34N 46°37' W 005°52'1716.8
2014-Oct-30 04:34N 46°21' W 005°53'1717.0
2014-Oct-30 03:34N 46°04' W 005°54'1716.8
2014-Oct-30 02:34N 45°47' W 005°56'1716.5
2014-Oct-30 01:33N 45°30' W 005°57'1616.1
2014-Oct-30 00:33N 45°14' W 005°57'1425.5
2014-Oct-30 00:00N 45°00' W 005°54'4 8.5 999 / 31016.0 2.2 0.519.118.8
2014-Oct-29 23:33N 44°58' W 005°58'2116.6
2014-Oct-29 22:18N 44°37' W 005°58'1216.0
2014-Oct-29 21:33N 44°25' W 005°58'1716.7
2014-Oct-29 20:33N 44°08' W 005°59'1816.3
2014-Oct-29 19:28N 43°50' W 005°60'1415.3
2014-Oct-29 18:32N 43°36' W 005°58'1 0.0
2014-Oct-28 05:26N 43°37' W 005°59'6 6.7
2014-Oct-28 04:33N 43°40' W 006°06'8 7.5
2014-Oct-28 03:25N 43°41' W 006°17'4011.7
2014-Oct-28 00:00N 43°48' W 007°12'119 9.9 160 / 61013.5 5.4 0.518.516.5
2014-Oct-27 12:00N 43°00' W 009°42'15212.7 130 / 61016.8 5.4 0.520.517.8
2014-Oct-27 00:00N 41°12' W 012°06'14712.2 170 / 51018.0 5.4 0.519.918.9
2014-Oct-26 12:00N 39°00' W 013°30'12314.0 130 / 51018.0 5.4 0.522.819.9
2014-Oct-26 03:13N 36°57' W 013°28'2914.4
2014-Oct-26 01:13N 36°28' W 013°30'1614.7
2014-Oct-26 00:08N 36°13' W 013°28'755.6
2014-Oct-26 00:00N 36°06' W 013°24'2111.9 999 / 21018.0 5.4 21.619.4
2014-Oct-25 22:12N 35°45' W 013°28'914.3
2014-Oct-25 21:33N 35°36' W 013°28'14014.7
2014-Oct-25 12:00N 33°18' W 014°00'1912.7 999 / 11017.0 5.4 23.821.2
2014-Oct-25 10:32N 33°03' W 014°12'1414.4
2014-Oct-25 09:33N 32°49' W 014°17'1814.4
2014-Oct-25 08:19N 32°32' W 014°24'1614.7
2014-Oct-25 07:15N 32°18' W 014°31'1014.7
2014-Oct-25 06:33N 32°08' W 014°35'9714.8
2014-Oct-25 00:00N 30°36' W 015°12'2513.2 999 / 11016.2 5.4 23.121.4
2014-Oct-24 22:06N 30°13' W 015°23'814.4
2014-Oct-24 21:33N 30°05' W 015°26'2914.4
2014-Oct-24 19:33N 29°38' W 015°36'1614.6
2014-Oct-24 18:27N 29°23' W 015°42'96 3.2
2014-Oct-23 12:00N 27°54' W 016°24'22418.7 030 / 151017.0 5.4 1.024.521.1
2014-Oct-23 00:00N 24°12' W 017°00'107 8.9 020 / 81016.0 5.4 0.524.520.8
2014-Oct-22 12:00N 22°30' W 017°36'   020 / 101015.5 5.4 0.523.520.2

Dump ship's entire track history